Time;durP1;ratioP1;P1;durP2;ratioP2;P2;SDS_P1;SDS_P2;PMS_P1;PMS_P2;Temp;Humidity;BMP_temperature;BMP_pressure;BME280_temperature;BME280_humidity;BME280_pressure;Samples;Min_cycle;Max_cycle;Signal;HPM_P1;HPM_P2
2023/09/26 00:00:50;;;;;;;1.97;1.40;;;;;;;;;;5040660;28;59770;-70
2023/09/26 00:03:16;;;;;;;1.63;1.27;;;;;;;;;;5043977;28;57943;-70
2023/09/26 00:05:41;;;;;;;1.50;1.27;;;;;;;;;;5043377;28;58566;-70
2023/09/26 00:08:07;;;;;;;1.17;1.08;;;;;;;;;;5043575;28;58555;-70
2023/09/26 00:10:32;;;;;;;2.38;1.70;;;;;;;;;;5042637;28;58829;-71
2023/09/26 00:12:57;;;;;;;1.23;1.13;;;;;;;;;;5039850;28;57918;-70
2023/09/26 00:15:22;;;;;;;1.30;1.20;;;;;;;;;;5042537;28;58104;-70
2023/09/26 00:17:47;;;;;;;1.20;1.10;;;;;;;;;;5044602;28;58192;-70
2023/09/26 00:20:16;;;;;;;1.13;1.02;;;;;;;;;;5043940;28;57921;-70
2023/09/26 00:22:42;;;;;;;1.15;1.05;;;;;;;;;;5042331;28;63692;-70
2023/09/26 00:25:07;;;;;;;1.67;1.50;;;;;;;;;;5041861;28;58057;-71
2023/09/26 00:27:32;;;;;;;1.85;1.75;;;;;;;;;;5042661;28;58023;-70
2023/09/26 00:29:57;;;;;;;1.53;1.43;;;;;;;;;;5040340;28;58313;-70
2023/09/26 00:32:23;;;;;;;0.93;0.90;;;;;;;;;;5044349;28;57906;-70
2023/09/26 00:34:48;;;;;;;1.48;1.38;;;;;;;;;;5041719;28;57847;-70
2023/09/26 00:37:13;;;;;;;1.20;1.03;;;;;;;;;;5036838;28;58015;-70
2023/09/26 00:39:39;;;;;;;1.33;1.23;;;;;;;;;;5043389;28;58977;-70
2023/09/26 00:42:04;;;;;;;2.08;1.30;;;;;;;;;;5040788;28;59055;-71
2023/09/26 00:44:29;;;;;;;1.20;1.00;;;;;;;;;;5059061;27;58306;-70
2023/09/26 00:46:55;;;;;;;0.80;0.80;;;;;;;;;;5044751;28;57838;-70
2023/09/26 00:49:20;;;;;;;0.98;0.95;;;;;;;;;;5040950;28;58947;-71
2023/09/26 00:51:45;;;;;;;1.25;1.00;;;;;;;;;;5042567;28;57920;-70
2023/09/26 00:54:11;;;;;;;1.10;1.00;;;;;;;;;;5040746;28;60186;-71
2023/09/26 00:56:38;;;;;;;1.15;1.05;;;;;;;;;;5041295;28;58147;-70
2023/09/26 00:59:03;;;;;;;1.52;1.10;;;;;;;;;;5043248;28;58378;-70
2023/09/26 01:01:30;;;;;;;1.30;1.20;;;;;;;;;;5043431;28;57772;-68
2023/09/26 01:03:56;;;;;;;1.00;0.90;;;;;;;;;;5041736;28;58037;-68
2023/09/26 01:06:21;;;;;;;1.25;1.15;;;;;;;;;;5043673;28;59251;-69
2023/09/26 01:08:46;;;;;;;0.80;0.80;;;;;;;;;;5040038;28;57960;-69
2023/09/26 01:11:13;;;;;;;1.23;1.00;;;;;;;;;;5041192;28;57993;-68
2023/09/26 01:13:38;;;;;;;0.80;0.80;;;;;;;;;;5043614;28;59600;-68
2023/09/26 01:16:14;;;;;;;1.20;1.10;;;;;;;;;;5042856;28;58006;-68
2023/09/26 01:18:39;;;;;;;0.95;0.82;;;;;;;;;;5040057;28;58927;-69
2023/09/26 01:21:05;;;;;;;0.82;0.75;;;;;;;;;;5041928;28;58829;-69
2023/09/26 01:23:30;;;;;;;1.50;1.40;;;;;;;;;;5043322;28;57722;-68
2023/09/26 01:25:55;;;;;;;1.10;1.07;;;;;;;;;;5043648;28;57816;-69
2023/09/26 01:28:21;;;;;;;1.10;1.00;;;;;;;;;;5041882;28;57828;-69
2023/09/26 01:30:46;;;;;;;0.70;0.70;;;;;;;;;;5042491;28;58069;-68
2023/09/26 01:33:12;;;;;;;1.00;0.90;;;;;;;;;;5038989;28;58826;-68
2023/09/26 01:35:38;;;;;;;1.63;1.30;;;;;;;;;;5042073;28;58171;-68
2023/09/26 01:38:03;;;;;;;1.05;1.05;;;;;;;;;;5043174;28;57823;-69
2023/09/26 01:40:28;;;;;;;2.10;1.20;;;;;;;;;;5046533;28;57984;-68
2023/09/26 01:42:53;;;;;;;1.13;1.02;;;;;;;;;;5046631;28;58229;-68
2023/09/26 01:45:19;;;;;;;0.93;0.93;;;;;;;;;;5060871;27;60273;-69
2023/09/26 01:47:48;;;;;;;0.90;0.90;;;;;;;;;;5043757;28;60497;-69
2023/09/26 01:50:14;;;;;;;0.82;0.80;;;;;;;;;;5047343;28;57891;-68
2023/09/26 01:52:39;;;;;;;0.95;0.88;;;;;;;;;;5046511;28;62217;-68
2023/09/26 01:55:05;;;;;;;1.40;1.30;;;;;;;;;;5046027;27;57962;-68
2023/09/26 01:57:31;;;;;;;1.42;0.90;;;;;;;;;;5045177;28;58119;-68
2023/09/26 01:59:59;;;;;;;1.17;0.85;;;;;;;;;;5044543;28;58053;-69
2023/09/26 02:02:24;;;;;;;0.90;0.90;;;;;;;;;;5044707;28;57912;-69
2023/09/26 02:04:49;;;;;;;0.80;0.80;;;;;;;;;;5041623;28;58466;-68
2023/09/26 02:07:14;;;;;;;1.00;0.90;;;;;;;;;;5042001;28;58239;-69
2023/09/26 02:09:39;;;;;;;2.50;1.02;;;;;;;;;;5038540;28;58191;-69
2023/09/26 02:12:07;;;;;;;1.02;0.90;;;;;;;;;;5042088;28;58107;-70
2023/09/26 02:14:32;;;;;;;1.00;1.00;;;;;;;;;;5041117;28;59014;-70
2023/09/26 02:16:57;;;;;;;1.10;1.00;;;;;;;;;;5046483;28;57763;-70
2023/09/26 02:19:22;;;;;;;1.43;1.20;;;;;;;;;;5045853;28;57800;-70
2023/09/26 02:21:47;;;;;;;1.20;1.10;;;;;;;;;;5045628;28;57896;-70
2023/09/26 02:24:13;;;;;;;1.90;1.53;;;;;;;;;;5046312;28;58633;-70
2023/09/26 02:26:38;;;;;;;1.30;1.20;;;;;;;;;;5060245;27;60142;-70
2023/09/26 02:29:03;;;;;;;1.60;1.40;;;;;;;;;;5060388;28;58109;-70
2023/09/26 02:31:28;;;;;;;1.20;1.10;;;;;;;;;;5044921;28;58151;-70
2023/09/26 02:33:53;;;;;;;1.63;1.10;;;;;;;;;;5045168;28;59142;-70
2023/09/26 02:36:18;;;;;;;1.23;1.10;;;;;;;;;;5044285;28;58177;-70
2023/09/26 02:38:44;;;;;;;1.57;1.20;;;;;;;;;;5046360;28;57805;-70
2023/09/26 02:41:09;;;;;;;1.60;1.50;;;;;;;;;;5047375;28;59220;-70
2023/09/26 02:43:34;;;;;;;2.33;1.50;;;;;;;;;;5046349;27;57915;-70
2023/09/26 02:45:59;;;;;;;1.10;1.00;;;;;;;;;;5043297;28;57877;-70
2023/09/26 02:48:24;;;;;;;1.77;1.37;;;;;;;;;;5046874;28;57997;-70
2023/09/26 02:50:50;;;;;;;1.40;1.30;;;;;;;;;;5041678;28;57935;-72
2023/09/26 02:53:15;;;;;;;1.03;0.97;;;;;;;;;;5042476;28;58091;-70
2023/09/26 02:55:40;;;;;;;0.93;0.93;;;;;;;;;;5042389;28;58132;-71
2023/09/26 02:58:06;;;;;;;1.30;1.20;;;;;;;;;;5045163;28;58459;-70
2023/09/26 03:00:31;;;;;;;2.38;1.20;;;;;;;;;;5042304;28;58860;-71
2023/09/26 03:02:56;;;;;;;1.37;1.27;;;;;;;;;;5044432;27;57781;-70
2023/09/26 03:05:21;;;;;;;1.55;1.10;;;;;;;;;;5044018;28;58056;-71
2023/09/26 03:07:46;;;;;;;1.17;1.08;;;;;;;;;;5044302;28;57679;-70
2023/09/26 03:10:12;;;;;;;1.27;1.17;;;;;;;;;;5044416;28;60179;-71
2023/09/26 03:12:37;;;;;;;0.93;0.90;;;;;;;;;;5044262;28;60092;-70
2023/09/26 03:15:02;;;;;;;1.27;1.00;;;;;;;;;;5042982;28;58232;-70
2023/09/26 03:17:28;;;;;;;1.13;1.02;;;;;;;;;;5044152;28;58952;-70
2023/09/26 03:19:53;;;;;;;1.20;1.00;;;;;;;;;;5043792;28;59723;-71
2023/09/26 03:22:18;;;;;;;1.37;1.27;;;;;;;;;;5044744;28;57873;-70
2023/09/26 03:24:43;;;;;;;1.33;1.10;;;;;;;;;;5042587;28;59505;-70
2023/09/26 03:27:08;;;;;;;0.80;0.80;;;;;;;;;;5044990;28;58348;-71
2023/09/26 03:29:34;;;;;;;1.10;1.00;;;;;;;;;;5042765;28;58566;-70
2023/09/26 03:31:59;;;;;;;1.25;1.00;;;;;;;;;;5042415;28;57884;-70
2023/09/26 03:34:24;;;;;;;1.40;1.30;;;;;;;;;;5041914;28;58199;-70
2023/09/26 03:36:49;;;;;;;1.10;1.00;;;;;;;;;;5043344;28;59184;-70
2023/09/26 03:39:14;;;;;;;1.33;1.23;;;;;;;;;;5043715;28;58153;-70
2023/09/26 03:41:40;;;;;;;1.02;1.02;;;;;;;;;;5045028;28;57892;-71
2023/09/26 03:44:05;;;;;;;1.20;1.10;;;;;;;;;;5044693;28;58740;-71
2023/09/26 03:46:32;;;;;;;0.95;0.85;;;;;;;;;;5045284;27;59056;-70
2023/09/26 03:48:57;;;;;;;2.30;0.90;;;;;;;;;;5042564;28;58152;-70
2023/09/26 03:51:22;;;;;;;1.10;0.80;;;;;;;;;;5042785;28;58406;-71
2023/09/26 03:53:48;;;;;;;0.80;0.80;;;;;;;;;;5044142;28;58094;-70
2023/09/26 03:56:13;;;;;;;1.10;1.00;;;;;;;;;;5042290;28;58387;-70
2023/09/26 03:58:38;;;;;;;1.73;1.27;;;;;;;;;;5044015;28;57923;-70
2023/09/26 04:01:07;;;;;;;0.93;0.93;;;;;;;;;;5038953;28;58045;-70
2023/09/26 04:03:32;;;;;;;1.02;0.93;;;;;;;;;;5041189;28;59817;-71
2023/09/26 04:05:57;;;;;;;1.20;1.15;;;;;;;;;;5042052;28;59438;-70
2023/09/26 04:08:23;;;;;;;0.77;0.77;;;;;;;;;;5044362;28;57780;-71
2023/09/26 04:10:48;;;;;;;0.83;0.80;;;;;;;;;;5047674;28;58990;-71
2023/09/26 04:13:13;;;;;;;1.13;1.00;;;;;;;;;;5039872;28;58205;-70
2023/09/26 04:15:38;;;;;;;1.00;1.00;;;;;;;;;;5044124;28;57984;-70
2023/09/26 04:18:06;;;;;;;0.83;0.83;;;;;;;;;;5042630;28;58041;-70
2023/09/26 04:20:32;;;;;;;;;;;;;;;;;;5042971;28;57858;-70
2023/09/26 04:22:57;;;;;;;0.88;0.88;;;;;;;;;;5043225;28;57893;-70
2023/09/26 04:25:22;;;;;;;1.65;0.90;;;;;;;;;;5042183;28;58752;-70
2023/09/26 04:27:47;;;;;;;1.03;0.70;;;;;;;;;;5057811;27;57944;-71
2023/09/26 04:30:13;;;;;;;1.17;0.73;;;;;;;;;;5040029;27;57899;-70
2023/09/26 04:32:38;;;;;;;0.82;0.82;;;;;;;;;;5041916;28;57815;-67
2023/09/26 04:35:03;;;;;;;1.27;1.17;;;;;;;;;;5042931;28;58363;-67
2023/09/26 04:37:29;;;;;;;1.35;1.02;;;;;;;;;;5043385;28;60125;-67
2023/09/26 04:39:54;;;;;;;1.80;1.23;;;;;;;;;;5057742;27;58006;-67
2023/09/26 04:42:19;;;;;;;1.20;1.10;;;;;;;;;;5044048;28;58058;-70
2023/09/26 04:44:44;;;;;;;1.27;1.07;;;;;;;;;;5037641;28;59364;-69
2023/09/26 04:47:09;;;;;;;0.80;0.80;;;;;;;;;;5042050;28;58755;-70
2023/09/26 04:49:35;;;;;;;1.67;1.15;;;;;;;;;;5039961;28;58109;-70
2023/09/26 04:52:00;;;;;;;1.40;0.80;;;;;;;;;;5037068;28;58160;-71
2023/09/26 04:54:25;;;;;;;3.08;1.20;;;;;;;;;;5037990;28;58014;-72
2023/09/26 04:56:50;;;;;;;3.43;1.10;;;;;;;;;;5040237;28;57931;-69
2023/09/26 04:59:15;;;;;;;1.30;1.20;;;;;;;;;;5038523;28;57836;-70
2023/09/26 05:01:41;;;;;;;1.07;1.03;;;;;;;;;;5038655;28;57867;-70
2023/09/26 05:04:06;;;;;;;2.17;1.20;;;;;;;;;;5040672;28;58837;-70
2023/09/26 05:06:31;;;;;;;1.43;1.13;;;;;;;;;;5040576;28;57791;-68
2023/09/26 05:08:56;;;;;;;1.23;1.23;;;;;;;;;;5042566;28;58535;-67
2023/09/26 05:11:22;;;;;;;1.07;0.97;;;;;;;;;;5043812;28;59025;-71
2023/09/26 05:13:47;;;;;;;1.30;1.08;;;;;;;;;;5041881;28;58050;-68
2023/09/26 05:16:14;;;;;;;0.97;0.90;;;;;;;;;;5057183;28;59024;-68
2023/09/26 05:18:39;;;;;;;0.80;0.80;;;;;;;;;;5041690;28;58193;-68
2023/09/26 05:21:08;;;;;;;1.23;0.77;;;;;;;;;;5042635;28;58454;-68
2023/09/26 05:23:33;;;;;;;1.90;1.08;;;;;;;;;;5041747;28;58006;-69
2023/09/26 05:26:05;;;;;;;1.20;1.10;;;;;;;;;;5044355;28;57843;-68
2023/09/26 05:28:30;;;;;;;1.13;0.98;;;;;;;;;;5042804;28;58800;-68
2023/09/26 05:30:55;;;;;;;1.10;1.00;;;;;;;;;;5043207;28;58752;-68
2023/09/26 05:33:21;;;;;;;0.97;0.77;;;;;;;;;;5042856;28;57852;-68
2023/09/26 05:35:46;;;;;;;0.70;0.67;;;;;;;;;;5042437;28;57900;-68
2023/09/26 05:38:11;;;;;;;1.23;1.00;;;;;;;;;;5042002;28;58087;-68
2023/09/26 05:40:36;;;;;;;2.10;0.80;;;;;;;;;;5041832;28;58985;-69
2023/09/26 05:43:01;;;;;;;0.97;0.90;;;;;;;;;;5041097;28;57960;-70
2023/09/26 05:45:28;;;;;;;1.47;1.20;;;;;;;;;;5041269;28;58107;-70
2023/09/26 05:47:53;;;;;;;0.90;0.90;;;;;;;;;;5042608;28;58122;-71
2023/09/26 05:50:18;;;;;;;0.90;0.90;;;;;;;;;;5042110;28;58049;-71
2023/09/26 05:52:43;;;;;;;1.10;0.93;;;;;;;;;;5043402;28;58785;-70
2023/09/26 05:55:08;;;;;;;1.30;1.07;;;;;;;;;;5042594;28;59790;-70
2023/09/26 05:57:33;;;;;;;0.90;0.90;;;;;;;;;;5048490;28;57841;-70
2023/09/26 05:59:59;;;;;;;0.70;0.70;;;;;;;;;;5041109;28;57820;-70
2023/09/26 06:02:24;;;;;;;0.95;0.82;;;;;;;;;;5041503;28;58063;-71
2023/09/26 06:04:50;;;;;;;0.80;0.80;;;;;;;;;;5043345;28;57673;-70
2023/09/26 06:07:15;;;;;;;0.70;0.70;;;;;;;;;;5040876;28;58841;-70
2023/09/26 06:09:41;;;;;;;0.70;0.70;;;;;;;;;;5041757;28;59263;-70
2023/09/26 06:12:06;;;;;;;0.77;0.77;;;;;;;;;;5042249;28;58057;-71
2023/09/26 06:14:33;;;;;;;1.27;0.90;;;;;;;;;;5040850;28;57929;-70
2023/09/26 06:16:59;;;;;;;0.93;0.93;;;;;;;;;;5042233;28;58252;-70
2023/09/26 06:19:24;;;;;;;1.27;1.10;;;;;;;;;;5056206;27;59010;-70
2023/09/26 06:21:49;;;;;;;1.20;1.00;;;;;;;;;;5049273;28;60100;-71
2023/09/26 06:24:14;;;;;;;1.00;1.00;;;;;;;;;;5041215;28;57795;-71
2023/09/26 06:26:40;;;;;;;1.10;1.03;;;;;;;;;;5045315;28;59546;-70
2023/09/26 06:29:05;;;;;;;0.90;0.90;;;;;;;;;;5044620;28;59254;-70
2023/09/26 06:31:30;;;;;;;0.70;0.70;;;;;;;;;;5041531;28;58057;-70
2023/09/26 06:33:59;;;;;;;1.17;1.10;;;;;;;;;;5045099;28;58031;-71
2023/09/26 06:36:25;;;;;;;1.85;1.73;;;;;;;;;;5046067;28;58207;-70
2023/09/26 06:38:50;;;;;;;0.85;0.85;;;;;;;;;;5044931;28;58969;-70
2023/09/26 06:41:15;;;;;;;0.80;0.80;;;;;;;;;;5045342;28;58499;-70
2023/09/26 06:43:41;;;;;;;0.80;0.80;;;;;;;;;;5052825;28;58453;-70
2023/09/26 06:46:06;;;;;;;0.93;0.90;;;;;;;;;;5043701;28;58056;-70
2023/09/26 06:48:34;;;;;;;1.20;1.05;;;;;;;;;;5045310;28;58879;-70
2023/09/26 06:51:00;;;;;;;1.88;1.65;;;;;;;;;;5045612;28;58367;-69
2023/09/26 06:53:25;;;;;;;1.07;0.97;;;;;;;;;;5044271;28;58705;-72
2023/09/26 06:55:51;;;;;;;0.83;0.83;;;;;;;;;;5045841;28;57832;-70
2023/09/26 06:58:16;;;;;;;1.10;1.10;;;;;;;;;;5046044;28;57871;-70
2023/09/26 07:00:41;;;;;;;0.87;0.87;;;;;;;;;;5045359;28;58892;-71
2023/09/26 07:03:06;;;;;;;1.53;1.00;;;;;;;;;;5045522;28;57968;-70
2023/09/26 07:05:31;;;;;;;1.30;1.20;;;;;;;;;;5044588;28;58858;-72
2023/09/26 07:07:57;;;;;;;1.05;0.98;;;;;;;;;;5043542;28;58772;-70
2023/09/26 07:10:22;;;;;;;1.05;0.95;;;;;;;;;;5045219;28;57692;-71
2023/09/26 07:12:48;;;;;;;1.33;0.97;;;;;;;;;;5044572;28;57848;-73
2023/09/26 07:15:13;;;;;;;1.27;1.17;;;;;;;;;;5041802;28;58235;-72
2023/09/26 07:17:38;;;;;;;0.97;0.97;;;;;;;;;;5044294;28;57851;-72
2023/09/26 07:20:07;;;;;;;1.30;0.60;;;;;;;;;;5046196;28;58804;-72
2023/09/26 07:22:32;;;;;;;0.82;0.60;;;;;;;;;;5046157;28;57898;-72
2023/09/26 07:24:57;;;;;;;1.60;0.83;;;;;;;;;;5044791;28;58697;-72
2023/09/26 07:27:23;;;;;;;0.90;0.90;;;;;;;;;;5043877;28;59432;-72
2023/09/26 07:29:48;;;;;;;0.90;0.90;;;;;;;;;;5045362;28;58156;-72
2023/09/26 07:32:16;;;;;;;0.80;0.80;;;;;;;;;;5044736;28;58760;-72
2023/09/26 07:34:41;;;;;;;;;;;;;;;;;;5045165;28;63732;-72
2023/09/26 07:37:07;;;;;;;0.90;0.90;;;;;;;;;;5044134;28;57931;-72
2023/09/26 07:39:32;;;;;;;0.80;0.70;;;;;;;;;;5045372;28;58484;-71
2023/09/26 07:41:57;;;;;;;0.73;0.70;;;;;;;;;;5044071;28;58910;-72
2023/09/26 07:44:22;;;;;;;0.77;0.77;;;;;;;;;;5060544;28;59858;-73
2023/09/26 07:46:47;;;;;;;1.17;1.10;;;;;;;;;;5045147;28;57836;-70
2023/09/26 07:49:13;;;;;;;1.38;1.27;;;;;;;;;;5044845;27;57815;-70
2023/09/26 07:51:38;;;;;;;0.63;0.63;;;;;;;;;;5042925;28;58875;-70
2023/09/26 07:54:04;;;;;;;1.10;1.00;;;;;;;;;;5043759;28;59926;-71
2023/09/26 07:56:29;;;;;;;0.70;0.70;;;;;;;;;;5045604;28;58173;-70
2023/09/26 07:58:54;;;;;;;0.80;0.80;;;;;;;;;;5045739;28;59442;-70
2023/09/26 08:01:19;;;;;;;0.90;0.90;;;;;;;;;;5043541;28;59025;-71
2023/09/26 08:03:45;;;;;;;1.25;1.10;;;;;;;;;;5044022;28;58145;-70
2023/09/26 08:06:11;;;;;;;1.00;1.00;;;;;;;;;;5041798;28;58805;-71
2023/09/26 08:08:37;;;;;;;0.77;0.77;;;;;;;;;;5043167;28;57887;-70
2023/09/26 08:11:09;;;;;;;0.82;0.82;;;;;;;;;;5044035;28;58396;-70
2023/09/26 08:13:35;;;;;;;0.88;0.88;;;;;;;;;;5043525;28;58172;-70
2023/09/26 08:16:00;;;;;;;0.75;0.75;;;;;;;;;;5042719;28;57826;-70
2023/09/26 08:18:26;;;;;;;1.17;0.97;;;;;;;;;;5042977;28;58570;-70
2023/09/26 08:20:57;;;;;;;1.45;1.35;;;;;;;;;;5043448;28;59467;-70
2023/09/26 08:23:22;;;;;;;0.50;0.50;;;;;;;;;;5043800;28;57962;-70
2023/09/26 08:25:47;;;;;;;0.82;0.82;;;;;;;;;;5042339;28;60101;-70
2023/09/26 08:28:12;;;;;;;0.80;0.80;;;;;;;;;;5043396;28;57827;-71
2023/09/26 08:30:38;;;;;;;0.77;0.77;;;;;;;;;;5044846;28;58051;-71
2023/09/26 08:33:03;;;;;;;0.77;0.70;;;;;;;;;;5043518;28;58127;-70
2023/09/26 08:35:30;;;;;;;0.80;0.80;;;;;;;;;;5044114;28;58239;-70
2023/09/26 08:37:55;;;;;;;0.70;0.70;;;;;;;;;;5060432;27;60284;-70
2023/09/26 08:40:24;;;;;;;0.90;0.90;;;;;;;;;;5041240;28;59038;-70
2023/09/26 08:42:52;;;;;;;1.13;0.90;;;;;;;;;;5044315;28;58209;-71
2023/09/26 08:45:17;;;;;;;0.82;0.80;;;;;;;;;;5041753;28;57860;-70
2023/09/26 08:47:43;;;;;;;0.95;0.95;;;;;;;;;;5058698;28;58062;-70
2023/09/26 08:50:09;;;;;;;1.00;0.90;;;;;;;;;;5040449;28;58416;-70
2023/09/26 08:52:34;;;;;;;0.63;0.63;;;;;;;;;;5044052;28;59248;-70
2023/09/26 08:55:00;;;;;;;0.77;0.77;;;;;;;;;;5057798;27;58173;-70
2023/09/26 08:57:25;;;;;;;0.80;0.80;;;;;;;;;;5041981;28;57895;-70
2023/09/26 08:59:51;;;;;;;0.80;0.80;;;;;;;;;;5043642;28;59233;-70
2023/09/26 09:02:16;;;;;;;0.85;0.85;;;;;;;;;;5059167;28;58048;-69
2023/09/26 09:04:42;;;;;;;0.73;0.70;;;;;;;;;;5043014;28;57679;-70
2023/09/26 09:07:08;;;;;;;0.70;0.60;;;;;;;;;;5041884;28;60469;-71
2023/09/26 09:09:33;;;;;;;0.93;0.93;;;;;;;;;;5041943;28;58736;-71
2023/09/26 09:11:59;;;;;;;0.82;0.80;;;;;;;;;;5041918;28;60490;-70
2023/09/26 09:14:31;;;;;;;0.65;0.65;;;;;;;;;;5043303;28;57988;-71
2023/09/26 09:16:56;;;;;;;0.68;0.68;;;;;;;;;;5044603;28;58975;-71
2023/09/26 09:19:21;;;;;;;0.82;0.82;;;;;;;;;;5041405;28;58986;-71
2023/09/26 09:21:47;;;;;;;0.73;0.73;;;;;;;;;;5043974;28;57932;-70
2023/09/26 09:24:12;;;;;;;0.50;0.50;;;;;;;;;;5040625;27;58458;-70
2023/09/26 09:26:37;;;;;;;0.80;0.80;;;;;;;;;;5041621;28;58726;-70
2023/09/26 09:29:14;;;;;;;0.60;0.60;;;;;;;;;;5044085;28;58186;-70
2023/09/26 09:31:40;;;;;;;1.10;1.00;;;;;;;;;;5042360;28;62098;-73
2023/09/26 09:34:05;;;;;;;0.80;0.70;;;;;;;;;;5041386;28;58064;-70
2023/09/26 09:36:30;;;;;;;0.87;0.87;;;;;;;;;;5043788;28;58452;-71
2023/09/26 09:38:55;;;;;;;0.70;0.70;;;;;;;;;;5040542;28;58664;-70
2023/09/26 09:41:20;;;;;;;0.57;0.57;;;;;;;;;;5043123;27;58113;-70
2023/09/26 09:43:45;;;;;;;0.77;0.77;;;;;;;;;;5044276;28;58959;-70
2023/09/26 09:46:11;;;;;;;0.90;0.90;;;;;;;;;;5041396;28;58033;-71
2023/09/26 09:48:43;;;;;;;0.70;0.70;;;;;;;;;;5043552;28;57726;-71
2023/09/26 09:51:11;;;;;;;0.60;0.52;;;;;;;;;;5042209;28;58710;-70
2023/09/26 09:53:37;;;;;;;0.70;0.70;;;;;;;;;;5043245;28;57598;-70
2023/09/26 09:56:04;;;;;;;0.70;0.70;;;;;;;;;;5041988;28;59186;-70
2023/09/26 09:58:31;;;;;;;0.50;0.50;;;;;;;;;;5043521;28;58696;-70
2023/09/26 10:00:58;;;;;;;1.17;0.63;;;;;;;;;;5046039;28;57920;-70
2023/09/26 10:03:24;;;;;;;0.70;0.70;;;;;;;;;;5046438;28;58099;-70
2023/09/26 10:05:51;;;;;;;1.10;0.65;;;;;;;;;;5046103;28;58732;-70
2023/09/26 10:08:16;;;;;;;0.50;0.50;;;;;;;;;;5044854;28;58371;-70
2023/09/26 10:10:41;;;;;;;0.70;0.70;;;;;;;;;;5047846;28;58158;-72
2023/09/26 10:13:07;;;;;;;0.73;0.73;;;;;;;;;;5044205;28;58836;-69
2023/09/26 10:15:53;;;;;;;0.60;0.60;;;;;;;;;;5046543;27;58944;-70
2023/09/26 10:18:18;;;;;;;0.75;0.75;;;;;;;;;;5044585;27;59036;-70
2023/09/26 10:20:46;;;;;;;0.80;0.80;;;;;;;;;;5046582;28;57825;-68
2023/09/26 10:23:11;;;;;;;0.68;0.60;;;;;;;;;;5046392;28;57940;-68
2023/09/26 10:25:37;;;;;;;0.70;0.70;;;;;;;;;;5046006;28;57982;-68
2023/09/26 10:28:03;;;;;;;0.73;0.63;;;;;;;;;;5045093;28;57867;-68
2023/09/26 10:30:29;;;;;;;0.80;0.75;;;;;;;;;;5046275;28;59053;-68
2023/09/26 10:32:54;;;;;;;0.50;0.50;;;;;;;;;;5046217;28;58931;-68
2023/09/26 10:35:23;;;;;;;0.63;0.63;;;;;;;;;;5046119;28;59426;-69
2023/09/26 10:37:49;;;;;;;0.60;0.60;;;;;;;;;;5046102;28;58142;-68
2023/09/26 10:40:16;;;;;;;0.60;0.60;;;;;;;;;;5045568;28;58119;-68
2023/09/26 10:42:44;;;;;;;0.45;0.45;;;;;;;;;;5045949;28;58481;-68
2023/09/26 10:45:10;;;;;;;1.00;0.60;;;;;;;;;;5043923;28;59549;-68
2023/09/26 10:47:38;;;;;;;1.05;0.95;;;;;;;;;;5046449;28;58170;-68
2023/09/26 10:50:05;;;;;;;0.60;0.60;;;;;;;;;;5045823;28;57832;-68
2023/09/26 10:52:31;;;;;;;0.60;0.60;;;;;;;;;;5044559;28;59390;-68
2023/09/26 10:54:56;;;;;;;0.65;0.65;;;;;;;;;;5046138;28;58078;-68
2023/09/26 10:57:21;;;;;;;0.70;0.70;;;;;;;;;;5045059;28;58231;-68
2023/09/26 10:59:49;;;;;;;1.30;0.70;;;;;;;;;;5044348;28;58124;-68
2023/09/26 11:02:14;;;;;;;0.88;0.65;;;;;;;;;;5044209;28;58987;-68
2023/09/26 11:04:39;;;;;;;0.77;0.77;;;;;;;;;;5044179;28;58072;-68
2023/09/26 11:07:05;;;;;;;0.63;0.63;;;;;;;;;;5045163;28;58291;-68
2023/09/26 11:09:31;;;;;;;0.90;0.90;;;;;;;;;;5045691;28;58054;-68
2023/09/26 11:11:56;;;;;;;0.68;0.57;;;;;;;;;;5043007;27;59817;-70
2023/09/26 11:14:22;;;;;;;0.68;0.68;;;;;;;;;;5044177;28;57844;-68
2023/09/26 11:16:47;;;;;;;0.50;0.50;;;;;;;;;;5044738;28;58773;-68
2023/09/26 11:19:13;;;;;;;0.57;0.57;;;;;;;;;;5044158;27;59214;-68
2023/09/26 11:21:38;;;;;;;0.67;0.60;;;;;;;;;;5045806;28;58597;-68
2023/09/26 11:24:19;;;;;;;0.60;0.60;;;;;;;;;;5042022;28;60091;-68
2023/09/26 11:26:44;;;;;;;0.60;0.60;;;;;;;;;;5044406;28;57860;-68
2023/09/26 11:29:10;;;;;;;0.70;0.70;;;;;;;;;;5045198;28;58336;-68
2023/09/26 11:31:35;;;;;;;0.57;0.57;;;;;;;;;;5044217;28;59303;-68
2023/09/26 11:34:01;;;;;;;0.43;0.40;;;;;;;;;;5043361;28;57789;-68
2023/09/26 11:36:27;;;;;;;0.70;0.70;;;;;;;;;;5043325;28;58841;-68
2023/09/26 11:38:52;;;;;;;0.73;0.60;;;;;;;;;;5045638;28;58155;-68
2023/09/26 11:41:18;;;;;;;0.55;0.52;;;;;;;;;;5044423;28;57900;-71
2023/09/26 11:43:47;;;;;;;0.77;0.73;;;;;;;;;;5044839;28;59081;-68
2023/09/26 11:46:12;;;;;;;0.50;0.50;;;;;;;;;;5036956;28;57628;-69
2023/09/26 11:48:37;;;;;;;0.70;0.60;;;;;;;;;;5041760;28;60133;-69
2023/09/26 11:51:02;;;;;;;0.50;0.50;;;;;;;;;;5034878;28;58876;-69
2023/09/26 11:53:29;;;;;;;0.67;0.63;;;;;;;;;;5039982;28;58049;-68
2023/09/26 11:55:54;;;;;;;0.52;0.52;;;;;;;;;;5038485;28;58767;-68
2023/09/26 11:58:19;;;;;;;1.40;0.93;;;;;;;;;;5036985;28;57919;-68
2023/09/26 12:00:45;;;;;;;1.23;1.00;;;;;;;;;;5038429;28;58002;-68
2023/09/26 12:03:10;;;;;;;1.10;1.10;;;;;;;;;;5038243;27;58040;-69
2023/09/26 12:05:36;;;;;;;0.30;0.30;;;;;;;;;;5038788;27;58102;-69
2023/09/26 12:08:01;;;;;;;0.50;0.50;;;;;;;;;;5037962;28;58713;-69
2023/09/26 12:10:26;;;;;;;0.67;0.67;;;;;;;;;;5041046;28;58014;-69
2023/09/26 12:12:53;;;;;;;0.60;0.60;;;;;;;;;;5039789;28;58213;-69
2023/09/26 12:15:18;;;;;;;0.50;0.50;;;;;;;;;;5039494;28;58906;-69
2023/09/26 12:17:43;;;;;;;0.60;0.60;;;;;;;;;;5040908;28;57951;-69
2023/09/26 12:20:09;;;;;;;0.63;0.52;;;;;;;;;;5038635;28;57942;-69
2023/09/26 12:22:34;;;;;;;0.93;0.90;;;;;;;;;;5039829;28;58055;-69
2023/09/26 12:24:59;;;;;;;0.50;0.50;;;;;;;;;;5042565;28;57875;-69
2023/09/26 12:27:24;;;;;;;1.02;0.77;;;;;;;;;;5040336;28;57867;-69
2023/09/26 12:29:50;;;;;;;0.40;0.40;;;;;;;;;;5038896;28;59897;-69
2023/09/26 12:32:16;;;;;;;0.95;0.43;;;;;;;;;;5037914;28;57904;-69
2023/09/26 12:34:41;;;;;;;0.67;0.67;;;;;;;;;;5038884;28;59444;-69
2023/09/26 12:37:06;;;;;;;0.57;0.57;;;;;;;;;;5040700;28;59243;-69
2023/09/26 12:39:31;;;;;;;0.60;0.60;;;;;;;;;;5042993;28;58070;-69
2023/09/26 12:41:56;;;;;;;0.63;0.63;;;;;;;;;;5042583;28;58819;-69
2023/09/26 12:44:21;;;;;;;0.60;0.60;;;;;;;;;;5034701;27;58377;-69
2023/09/26 12:46:47;;;;;;;0.77;0.65;;;;;;;;;;5043718;28;59097;-70
2023/09/26 12:49:12;;;;;;;0.53;0.53;;;;;;;;;;5033551;28;60046;-69
2023/09/26 12:51:37;;;;;;;0.60;0.60;;;;;;;;;;5042025;28;57788;-71
2023/09/26 12:54:02;;;;;;;0.50;0.50;;;;;;;;;;5042557;28;58848;-71
2023/09/26 12:56:27;;;;;;;0.77;0.73;;;;;;;;;;5043300;28;59536;-70
2023/09/26 12:58:52;;;;;;;0.90;0.60;;;;;;;;;;5043474;28;58702;-70
2023/09/26 13:01:18;;;;;;;0.43;0.43;;;;;;;;;;5058685;27;58905;-70
2023/09/26 13:03:43;;;;;;;0.40;0.40;;;;;;;;;;5038739;28;58819;-70
2023/09/26 13:06:08;;;;;;;0.60;0.60;;;;;;;;;;5039108;27;58695;-70
2023/09/26 13:08:33;;;;;;;0.60;0.60;;;;;;;;;;5039032;28;58667;-70
2023/09/26 13:10:59;;;;;;;0.60;0.52;;;;;;;;;;5042190;28;58180;-70
2023/09/26 13:13:24;;;;;;;0.68;0.68;;;;;;;;;;5043701;28;58673;-70
2023/09/26 13:15:49;;;;;;;0.50;0.50;;;;;;;;;;5042836;28;59180;-70
2023/09/26 13:18:14;;;;;;;0.53;0.53;;;;;;;;;;5043323;28;59214;-70
2023/09/26 13:20:39;;;;;;;0.50;0.50;;;;;;;;;;5036649;28;58452;-70
2023/09/26 13:23:05;;;;;;;0.63;0.63;;;;;;;;;;5042861;28;58437;-70
2023/09/26 13:25:30;;;;;;;0.80;0.60;;;;;;;;;;5044267;28;57879;-70
2023/09/26 13:27:55;;;;;;;0.75;0.73;;;;;;;;;;5031473;28;58988;-70
2023/09/26 13:30:21;;;;;;;0.40;0.40;;;;;;;;;;5039833;28;58139;-70
2023/09/26 13:32:46;;;;;;;0.60;0.60;;;;;;;;;;5037203;28;58773;-70
2023/09/26 13:35:11;;;;;;;0.40;0.40;;;;;;;;;;5041828;28;58395;-70
2023/09/26 13:37:36;;;;;;;0.70;0.70;;;;;;;;;;5042744;27;58424;-70
2023/09/26 13:40:04;;;;;;;0.52;0.52;;;;;;;;;;5036930;28;59444;-70
2023/09/26 13:42:29;;;;;;;0.60;0.60;;;;;;;;;;5044973;28;59033;-71
2023/09/26 13:44:55;;;;;;;0.70;0.70;;;;;;;;;;5045934;28;58841;-70
2023/09/26 13:47:20;;;;;;;0.40;0.40;;;;;;;;;;5044419;28;58882;-70
2023/09/26 13:49:45;;;;;;;0.98;0.75;;;;;;;;;;5047305;28;59520;-70
2023/09/26 13:52:10;;;;;;;0.93;0.57;;;;;;;;;;5044895;28;58403;-70
2023/09/26 13:54:35;;;;;;;0.43;0.43;;;;;;;;;;5044681;28;60356;-70
2023/09/26 13:57:00;;;;;;;0.70;0.70;;;;;;;;;;5045435;28;58508;-70
2023/09/26 13:59:25;;;;;;;0.50;0.50;;;;;;;;;;5045379;28;59061;-70
2023/09/26 14:01:51;;;;;;;0.53;0.53;;;;;;;;;;5045755;28;58648;-70
2023/09/26 14:04:16;;;;;;;0.67;0.60;;;;;;;;;;5045498;28;58671;-70
2023/09/26 14:06:41;;;;;;;0.87;0.87;;;;;;;;;;5044794;28;59490;-70
2023/09/26 14:09:06;;;;;;;0.57;0.57;;;;;;;;;;5045440;28;59126;-70
2023/09/26 14:11:31;;;;;;;0.65;0.60;;;;;;;;;;5045420;28;58603;-70
2023/09/26 14:13:56;;;;;;;0.40;0.40;;;;;;;;;;5045121;28;59237;-70
2023/09/26 14:16:22;;;;;;;0.53;0.50;;;;;;;;;;5043277;28;58471;-70
2023/09/26 14:18:47;;;;;;;0.60;0.60;;;;;;;;;;5046128;28;58750;-70
2023/09/26 14:21:14;;;;;;;0.40;0.40;;;;;;;;;;5051153;28;58774;-70
2023/09/26 14:23:39;;;;;;;0.60;0.50;;;;;;;;;;5044738;28;58790;-70
2023/09/26 14:26:04;;;;;;;0.57;0.57;;;;;;;;;;5045863;28;58336;-70
2023/09/26 14:28:30;;;;;;;0.43;0.43;;;;;;;;;;5044661;28;58398;-70
2023/09/26 14:30:55;;;;;;;0.55;0.50;;;;;;;;;;5046628;28;58313;-70
2023/09/26 14:33:20;;;;;;;0.60;0.60;;;;;;;;;;5045541;28;58839;-70